Terry Peak, South Dakota
Current Conditions -  °F | °C
As of 7:55 AM on Monday 24 Nov 2014 (Local Time) from KSPF Reporting Station
Light Snow Light Snow  
Wind Chill: 23°   Ceiling: Unl
Heat Index: 32°   Visibility: 3mi
Dew Point: 28°   Wind: 12mph
Humidity: 87%   Direction: 300°WNW
Pressure: 29.82"   Gusts: 17mph
Location:  44.253°N, 103.912°W
Report Text: KSPF 241455Z AUTO 30010G15KT 3SM -SN SCT014 00/M02 A2982 RMK AO2 P0019
Loading
Personal Weather Stations






























Interactive Weather Map New forecast layout! Learn more

10-Day Weather Forecast

Advertisements
Track Severe Weather on mobile